Time;durP1;ratioP1;P1;durP2;ratioP2;P2;SDS_P1;SDS_P2;PMS_P1;PMS_P2;Temp;Humidity;BMP_temperature;BMP_pressure;BME280_temperature;BME280_humidity;BME280_pressure;Samples;Min_cycle;Max_cycle;Signal;HPM_P1;HPM_P2
2022/07/14 00:02:28;;;;;;;2.65;0.80;;;;;22.70;102015.00;;;;5037090;28;20197;-76
2022/07/14 00:04:55;;;;;;;1.63;0.73;;;;;22.70;102014.00;;;;5029836;28;20203;-78
2022/07/14 00:07:22;;;;;;;2.70;0.80;;;;;22.60;102008.00;;;;5031589;28;20221;-78
2022/07/14 00:09:49;;;;;;;2.90;1.27;;;;;22.60;102005.00;;;;5043026;28;20204;-77
2022/07/14 00:12:17;;;;;;;2.38;1.00;;;;;22.60;101999.00;;;;5034011;28;20218;-78
2022/07/14 00:14:44;;;;;;;5.45;0.90;;;;;22.60;101994.00;;;;5040228;28;20192;-78
2022/07/14 00:17:12;;;;;;;2.17;0.70;;;;;22.60;101998.00;;;;5030501;28;20196;-77
2022/07/14 00:19:40;;;;;;;2.25;0.85;;;;;22.60;101992.00;;;;5039118;28;20203;-78
2022/07/14 00:22:08;;;;;;;2.28;0.85;;;;;22.60;101992.00;;;;5037286;28;20206;-78
2022/07/14 00:24:35;;;;;;;3.42;0.80;;;;;22.60;101994.00;;;;5028828;28;20208;-78
2022/07/14 00:27:02;;;;;;;2.30;0.95;;;;;22.60;101995.00;;;;5027864;28;20197;-78
2022/07/14 00:29:29;;;;;;;2.65;0.90;;;;;22.60;101987.00;;;;5028840;28;20224;-78
2022/07/14 00:31:56;;;;;;;5.13;1.10;;;;;22.50;101991.00;;;;5029697;28;20199;-78
2022/07/14 00:34:24;;;;;;;4.15;0.88;;;;;22.50;102001.00;;;;5040224;28;20199;-78
2022/07/14 00:36:52;;;;;;;2.70;0.93;;;;;22.50;102007.00;;;;5034988;28;20196;-78
2022/07/14 00:39:20;;;;;;;3.22;1.02;;;;;22.50;102006.00;;;;5028150;28;20215;-78
2022/07/14 00:41:47;;;;;;;2.70;0.73;;;;;22.50;102015.00;;;;5029589;28;20231;-78
2022/07/14 00:44:15;;;;;;;1.95;1.02;;;;;22.50;102027.00;;;;5041138;28;20192;-78
2022/07/14 00:46:42;;;;;;;1.73;0.70;;;;;22.50;102029.00;;;;5035333;28;20211;-78
2022/07/14 00:49:09;;;;;;;3.58;0.90;;;;;22.50;102028.00;;;;5038071;28;20228;-78
2022/07/14 00:51:37;;;;;;;2.17;0.80;;;;;22.50;102023.00;;;;5031866;28;20188;-78
2022/07/14 00:54:05;;;;;;;1.33;0.60;;;;;22.50;102028.00;;;;5029628;28;20196;-78
2022/07/14 00:56:33;;;;;;;3.83;0.73;;;;;22.50;102023.00;;;;5037743;28;20234;-78
2022/07/14 00:59:00;;;;;;;3.45;0.88;;;;;22.50;102016.00;;;;5027544;28;20203;-78
2022/07/14 01:01:31;;;;;;;2.63;0.60;;;;;22.40;102023.00;;;;5031640;28;20203;-78
2022/07/14 01:03:58;;;;;;;3.45;0.82;;;;;22.40;102015.00;;;;5029632;28;20200;-78
2022/07/14 01:06:25;;;;;;;3.03;0.98;;;;;22.40;102008.00;;;;5040000;28;20192;-78
2022/07/14 01:08:52;;;;;;;1.95;0.63;;;;;22.40;102004.00;;;;5027337;28;20235;-78
2022/07/14 01:11:21;;;;;;;2.85;1.02;;;;;22.30;102004.00;;;;5029488;28;20209;-78
2022/07/14 01:13:50;;;;;;;3.38;1.38;;;;;22.30;102001.00;;;;5033929;28;20203;-78
2022/07/14 01:16:17;;;;;;;4.22;1.08;;;;;22.30;102005.00;;;;5029437;28;20227;-78
2022/07/14 01:18:44;;;;;;;3.13;0.73;;;;;22.30;102003.00;;;;5027669;28;20573;-78
2022/07/14 01:21:13;;;;;;;3.15;0.93;;;;;22.30;101998.00;;;;5032900;28;20203;-78
2022/07/14 01:23:40;;;;;;;1.98;1.00;;;;;22.30;102005.00;;;;5028960;28;20196;-78
2022/07/14 01:26:07;;;;;;;4.20;1.20;;;;;22.20;101991.00;;;;5033740;28;20203;-78
2022/07/14 01:28:35;;;;;;;2.08;1.00;;;;;22.20;102000.00;;;;5028980;28;20219;-78
2022/07/14 01:31:03;;;;;;;2.67;0.90;;;;;22.20;102007.00;;;;5028171;28;20203;-78
2022/07/14 01:33:30;;;;;;;2.17;0.90;;;;;22.10;102005.00;;;;5036203;28;20200;-78
2022/07/14 01:35:57;;;;;;;1.58;0.60;;;;;22.10;102007.00;;;;5032784;28;20204;-78
2022/07/14 01:38:26;;;;;;;1.08;0.57;;;;;22.10;102009.00;;;;5046630;28;20192;-78
2022/07/14 01:40:53;;;;;;;3.78;1.00;;;;;22.00;102002.00;;;;5035600;28;20196;-78
2022/07/14 01:43:21;;;;;;;2.55;1.05;;;;;22.00;102008.00;;;;5036558;28;20239;-77
2022/07/14 01:45:48;;;;;;;4.22;1.00;;;;;22.00;102009.00;;;;5038881;28;20204;-78
2022/07/14 01:48:15;;;;;;;2.35;0.63;;;;;21.90;102002.00;;;;5045898;28;20230;-78
2022/07/14 01:50:43;;;;;;;3.67;1.02;;;;;21.90;102011.00;;;;5032081;28;20192;-78
2022/07/14 01:53:10;;;;;;;2.50;0.65;;;;;21.90;102011.00;;;;5027908;28;20194;-78
2022/07/14 01:55:38;;;;;;;3.83;1.45;;;;;21.80;102007.00;;;;5027076;28;20239;-77
2022/07/14 01:58:06;;;;;;;3.45;0.80;;;;;21.80;102021.00;;;;5032561;28;20205;-78
2022/07/14 02:00:33;;;;;;;4.88;1.10;;;;;21.80;102015.00;;;;5027292;28;20196;-78
2022/07/14 02:03:00;;;;;;;1.88;0.88;;;;;21.70;102016.00;;;;5037722;28;20208;-78
2022/07/14 02:05:28;;;;;;;5.68;1.40;;;;;21.70;102021.00;;;;5034395;28;20200;-78
2022/07/14 02:07:55;;;;;;;2.35;0.70;;;;;21.70;102024.00;;;;5030779;28;20204;-78
2022/07/14 02:13:08;;;;;;;1.23;0.60;;;;;21.60;102015.00;;;;5038122;28;20252;-78
2022/07/14 02:15:36;;;;;;;3.38;0.80;;;;;21.50;102018.00;;;;5047038;28;20208;-77
2022/07/14 02:18:03;;;;;;;2.35;0.80;;;;;21.50;102006.00;;;;5045807;28;20199;-77
2022/07/14 02:20:31;;;;;;;1.83;0.70;;;;;21.50;102009.00;;;;5031041;28;20202;-78
2022/07/14 02:22:58;;;;;;;2.20;0.95;;;;;21.40;102007.00;;;;5032093;28;20199;-78
2022/07/14 02:25:26;;;;;;;2.20;0.73;;;;;21.40;102000.00;;;;5035736;28;20200;-79
2022/07/14 02:27:53;;;;;;;1.25;0.65;;;;;21.30;101996.00;;;;5030579;28;20200;-78
2022/07/14 02:30:22;;;;;;;3.55;0.88;;;;;21.30;101995.00;;;;5030584;28;20197;-78
2022/07/14 02:32:49;;;;;;;2.17;0.77;;;;;21.30;101998.00;;;;5042085;28;20576;-78
2022/07/14 02:35:17;;;;;;;4.53;1.10;;;;;21.30;101999.00;;;;5040604;28;20196;-78
2022/07/14 02:37:44;;;;;;;2.17;0.95;;;;;21.20;102002.00;;;;5040842;28;20274;-78
2022/07/14 02:40:12;;;;;;;2.35;0.82;;;;;21.20;102000.00;;;;5031487;28;20200;-78
2022/07/14 02:42:40;;;;;;;5.38;1.00;;;;;21.10;101991.00;;;;5038797;28;20590;-78
2022/07/14 02:45:08;;;;;;;1.98;0.60;;;;;21.10;101988.00;;;;5032712;28;20209;-78
2022/07/14 02:47:37;;;;;;;1.00;0.88;;;;;21.10;101981.00;;;;5031180;28;20203;-78
2022/07/14 02:50:05;;;;;;;2.88;0.80;;;;;21.10;101987.00;;;;5040319;28;20239;-78
2022/07/14 02:52:33;;;;;;;1.33;0.77;;;;;21.10;101991.00;;;;5034089;28;20208;-78
2022/07/14 02:55:00;;;;;;;2.97;0.85;;;;;21.00;101988.00;;;;5043011;28;20200;-78
2022/07/14 02:57:28;;;;;;;2.10;0.90;;;;;21.00;101993.00;;;;5034583;28;20224;-77
2022/07/14 02:59:55;;;;;;;1.45;0.80;;;;;20.90;101988.00;;;;5034284;28;20667;-78
2022/07/14 03:02:23;;;;;;;1.13;0.63;;;;;20.90;101987.00;;;;5040615;28;20680;-78
2022/07/14 03:04:51;;;;;;;1.58;0.75;;;;;20.90;101995.00;;;;5035773;28;20200;-78
2022/07/14 03:07:19;;;;;;;2.97;1.00;;;;;20.80;101990.00;;;;5048133;28;20569;-78
2022/07/14 03:09:47;;;;;;;2.72;1.05;;;;;20.80;101990.00;;;;5047616;28;20234;-78
2022/07/14 03:12:14;;;;;;;3.28;1.05;;;;;20.80;101992.00;;;;5045554;28;20878;-78
2022/07/14 03:14:41;;;;;;;1.77;0.98;;;;;20.70;101989.00;;;;5030247;28;20200;-78
2022/07/14 03:17:09;;;;;;;1.55;0.90;;;;;20.70;101999.00;;;;5039393;28;20224;-78
2022/07/14 03:19:36;;;;;;;3.03;1.25;;;;;20.70;101991.00;;;;5029721;28;20573;-78
2022/07/14 03:22:05;;;;;;;1.35;0.47;;;;;20.70;101990.00;;;;5029808;28;20200;-78
2022/07/14 03:24:32;;;;;;;2.85;0.88;;;;;20.60;101994.00;;;;5032591;28;20206;-78
2022/07/14 03:27:00;;;;;;;2.30;0.90;;;;;20.60;102000.00;;;;5029487;28;20577;-78
2022/07/14 03:29:27;;;;;;;1.52;0.65;;;;;20.60;101987.00;;;;5030282;28;20216;-78
2022/07/14 03:31:55;;;;;;;0.95;0.60;;;;;20.50;101987.00;;;;5038330;28;20198;-77
2022/07/14 03:34:22;;;;;;;1.65;0.60;;;;;20.50;101986.00;;;;5045448;28;20662;-78
2022/07/14 03:36:49;;;;;;;1.73;1.20;;;;;20.50;101987.00;;;;5031929;28;20223;-78
2022/07/14 03:39:18;;;;;;;2.85;1.27;;;;;20.50;101977.00;;;;5032632;28;20210;-77
2022/07/14 03:41:45;;;;;;;1.45;0.90;;;;;20.40;101972.00;;;;5029470;28;20686;-77
2022/07/14 03:44:13;;;;;;;2.85;1.13;;;;;20.40;101969.00;;;;5028712;28;20202;-77
2022/07/14 03:46:40;;;;;;;2.95;0.80;;;;;20.40;101971.00;;;;5040077;28;20200;-77
2022/07/14 03:49:08;;;;;;;2.00;0.90;;;;;20.40;101979.00;;;;5029678;28;20588;-78
2022/07/14 03:51:40;;;;;;;3.22;0.77;;;;;20.40;101964.00;;;;5033134;28;20204;-78
2022/07/14 03:54:11;;;;;;;3.40;1.20;;;;;20.30;101968.00;;;;5045777;28;20573;-78
2022/07/14 03:56:40;;;;;;;1.20;0.75;;;;;20.30;101974.00;;;;5036922;28;20215;-77
2022/07/14 03:59:07;;;;;;;2.47;0.70;;;;;20.30;101965.00;;;;5029590;28;20196;-78
2022/07/14 04:01:35;;;;;;;2.58;0.77;;;;;20.30;101967.00;;;;5031074;28;20196;-78
2022/07/14 04:04:03;;;;;;;2.30;0.90;;;;;20.20;101961.00;;;;5028225;28;20197;-78
2022/07/14 04:06:31;;;;;;;3.30;0.77;;;;;20.20;101968.00;;;;5034345;28;20688;-78
2022/07/14 04:08:59;;;;;;;2.95;0.88;;;;;20.20;101971.00;;;;5027779;28;20597;-78
2022/07/14 04:11:26;;;;;;;3.08;1.05;;;;;20.20;101976.00;;;;5032063;28;20196;-77
2022/07/14 04:13:55;;;;;;;2.58;0.90;;;;;20.20;101974.00;;;;5035339;28;20207;-77
2022/07/14 04:16:22;;;;;;;3.20;1.10;;;;;20.20;101969.00;;;;5036110;28;20200;-77
2022/07/14 04:18:49;;;;;;;3.35;1.20;;;;;20.20;101978.00;;;;5034766;28;20214;-78
2022/07/14 04:21:17;;;;;;;1.60;0.60;;;;;20.20;101972.00;;;;5037201;28;20200;-78
2022/07/14 04:23:44;;;;;;;1.92;1.00;;;;;20.20;101971.00;;;;5036783;28;20705;-78
2022/07/14 04:26:12;;;;;;;2.35;0.85;;;;;20.20;101969.00;;;;5036782;28;20195;-78
2022/07/14 04:28:40;;;;;;;3.03;1.13;;;;;20.20;101961.00;;;;5039598;28;20203;-78
2022/07/14 04:31:08;;;;;;;2.97;1.52;;;;;20.20;101962.00;;;;5034765;28;20206;-78
2022/07/14 04:33:36;;;;;;;2.55;0.93;;;;;20.20;101962.00;;;;5038943;28;20199;-78
2022/07/14 04:36:03;;;;;;;1.73;0.90;;;;;20.20;101967.00;;;;5035825;28;20207;-78
2022/07/14 04:38:31;;;;;;;2.03;1.10;;;;;20.30;101969.00;;;;5033903;28;20246;-78
2022/07/14 04:41:00;;;;;;;3.65;1.10;;;;;20.30;101969.00;;;;5033032;28;20200;-78
2022/07/14 04:43:28;;;;;;;2.50;0.77;;;;;20.30;101967.00;;;;5034945;28;20211;-78
2022/07/14 04:45:55;;;;;;;1.85;1.00;;;;;20.30;101964.00;;;;5027869;28;20200;-78
2022/07/14 04:48:24;;;;;;;1.63;0.98;;;;;20.30;101965.00;;;;5029377;28;20204;-78
2022/07/14 04:53:37;;;;;;;3.03;1.25;;;;;20.40;101963.00;;;;5027964;28;20204;-78
2022/07/14 04:56:05;;;;;;;6.07;2.30;;;;;20.40;101959.00;;;;5029216;28;20252;-78
2022/07/14 04:58:32;;;;;;;6.13;2.15;;;;;20.50;101962.00;;;;5026916;28;20208;-78
2022/07/14 05:01:00;;;;;;;2.33;1.15;;;;;20.60;101959.00;;;;5034972;28;20223;-78
2022/07/14 05:03:28;;;;;;;2.45;1.00;;;;;20.60;101958.00;;;;5041312;28;20553;-78
2022/07/14 05:05:58;;;;;;;6.80;1.88;;;;;20.60;101959.00;;;;5029220;28;20671;-78
2022/07/14 05:08:25;;;;;;;3.65;1.08;;;;;20.70;101966.00;;;;5033944;28;20200;-78
2022/07/14 05:10:53;;;;;;;4.32;1.48;;;;;20.80;101964.00;;;;5035858;28;20967;-78
2022/07/14 05:13:20;;;;;;;5.32;1.70;;;;;20.90;101971.00;;;;5035033;28;20200;-79
2022/07/14 05:15:47;;;;;;;3.10;1.52;;;;;21.00;101970.00;;;;5031687;28;20215;-79
2022/07/14 05:18:15;;;;;;;3.92;1.60;;;;;21.00;101964.00;;;;5039436;28;20211;-79
2022/07/14 05:20:43;;;;;;;3.10;1.42;;;;;21.10;101965.00;;;;5028591;28;20203;-79
2022/07/14 05:23:11;;;;;;;4.63;1.60;;;;;21.20;101976.00;;;;5043727;28;20195;-79
2022/07/14 05:25:39;;;;;;;4.93;1.80;;;;;21.30;101970.00;;;;5047674;28;20183;-79
2022/07/14 05:28:07;;;;;;;8.43;1.83;;;;;21.40;101971.00;;;;5029641;28;20231;-79
2022/07/14 05:30:34;;;;;;;7.22;1.65;;;;;21.40;101977.00;;;;5031166;28;20220;-79
2022/07/14 05:33:02;;;;;;;3.28;1.30;;;;;21.50;101982.00;;;;5027760;28;20204;-79
2022/07/14 05:35:30;;;;;;;2.80;1.13;;;;;21.60;101976.00;;;;5037839;28;20200;-79
2022/07/14 05:37:59;;;;;;;4.60;1.20;;;;;21.70;101977.00;;;;5030476;28;20212;-79
2022/07/14 05:40:26;;;;;;;5.75;1.17;;;;;21.80;101969.00;;;;5036429;28;20207;-79
2022/07/14 05:42:53;;;;;;;4.95;2.00;;;;;21.90;101979.00;;;;5031286;28;20224;-79
2022/07/14 05:45:21;;;;;;;2.38;1.30;;;;;22.00;101972.00;;;;5027675;28;20208;-79
2022/07/14 05:47:49;;;;;;;2.35;0.80;;;;;22.00;101967.00;;;;5035768;28;20192;-78
2022/07/14 05:50:16;;;;;;;2.75;1.30;;;;;22.10;101973.00;;;;5045358;28;20231;-79
2022/07/14 05:52:44;;;;;;;4.43;1.23;;;;;22.20;101971.00;;;;5039320;28;20567;-80
2022/07/14 05:55:12;;;;;;;5.63;1.50;;;;;22.30;101965.00;;;;5031628;28;20283;-79
2022/07/14 05:57:40;;;;;;;6.90;1.40;;;;;22.30;101973.00;;;;5031267;28;20195;-79
2022/07/14 06:00:09;;;;;;;3.88;1.13;;;;;22.40;101969.00;;;;5031094;28;20199;-79
2022/07/14 06:02:36;;;;;;;5.05;1.38;;;;;22.50;101973.00;;;;5032845;28;20211;-79
2022/07/14 06:05:03;;;;;;;6.20;1.33;;;;;22.60;101974.00;;;;5038563;28;20572;-79
2022/07/14 06:07:31;;;;;;;3.08;1.38;;;;;22.70;101976.00;;;;5036745;28;20192;-80
2022/07/14 06:09:58;;;;;;;5.57;1.17;;;;;22.70;101975.00;;;;5041299;28;20219;-79
2022/07/14 06:12:27;;;;;;;4.63;1.33;;;;;22.80;101975.00;;;;5037957;28;20215;-78
2022/07/14 06:14:54;;;;;;;2.63;0.65;;;;;22.90;101988.00;;;;5035850;28;20200;-78
2022/07/14 06:17:22;;;;;;;7.80;1.83;;;;;23.00;101977.00;;;;5030757;28;21027;-79
2022/07/14 06:19:49;;;;;;;5.18;0.98;;;;;23.00;101976.00;;;;5034237;28;20552;-79
2022/07/14 06:22:16;;;;;;;6.47;1.35;;;;;23.10;101979.00;;;;5037589;28;20199;-79
2022/07/14 06:24:44;;;;;;;7.07;1.67;;;;;23.20;101982.00;;;;5034481;28;20185;-77
2022/07/14 06:27:11;;;;;;;3.70;1.08;;;;;23.30;101984.00;;;;5029972;28;20203;-78
2022/07/14 06:29:40;;;;;;;2.95;0.75;;;;;23.40;101989.00;;;;5041093;28;20220;-78
2022/07/14 06:32:07;;;;;;;9.18;1.02;;;;;23.40;101982.00;;;;5033560;28;20272;-79
2022/07/14 06:34:34;;;;;;;2.45;1.30;;;;;23.50;101984.00;;;;5035754;28;20196;-79
2022/07/14 06:37:02;;;;;;;5.95;1.42;;;;;23.60;101991.00;;;;5036089;28;20195;-79
2022/07/14 06:39:29;;;;;;;8.75;1.65;;;;;23.60;101991.00;;;;5039038;28;20207;-81
2022/07/14 06:41:56;;;;;;;3.45;1.05;;;;;23.70;101999.00;;;;5044517;28;20226;-78
2022/07/14 06:44:24;;;;;;;2.83;0.82;;;;;23.80;101995.00;;;;5031156;28;20199;-79
2022/07/14 06:46:52;;;;;;;6.05;1.33;;;;;23.90;102002.00;;;;5037443;28;20207;-77
2022/07/14 06:49:19;;;;;;;3.95;1.35;;;;;23.90;101985.00;;;;5035173;28;20215;-76
2022/07/14 06:51:47;;;;;;;3.20;0.98;;;;;24.00;101987.00;;;;5030045;28;20192;-77
2022/07/14 06:54:15;;;;;;;1.90;0.70;;;;;24.10;101984.00;;;;5029639;28;20193;-77
2022/07/14 06:56:42;;;;;;;7.85;1.23;;;;;24.20;101994.00;;;;5029681;28;20307;-77
2022/07/14 06:59:10;;;;;;;4.60;1.17;;;;;24.30;101988.00;;;;5028688;28;20211;-77
2022/07/14 07:01:37;;;;;;;3.67;1.13;;;;;24.30;101977.00;;;;5029690;28;20200;-76
2022/07/14 07:04:07;;;;;;;4.63;0.90;;;;;24.40;101962.00;;;;5032997;28;20294;-77
2022/07/14 07:06:45;;;;;;;3.78;1.02;;;;;24.40;101970.00;;;;5030103;28;20204;-77
2022/07/14 07:09:13;;;;;;;5.13;0.98;;;;;24.50;101967.00;;;;5029569;28;20198;-77
2022/07/14 07:11:40;;;;;;;3.92;0.98;;;;;24.60;101965.00;;;;5029807;28;20663;-76
2022/07/14 07:14:08;;;;;;;7.90;2.35;;;;;24.70;101957.00;;;;5029755;28;20200;-76
2022/07/14 07:16:35;;;;;;;2.67;0.80;;;;;24.80;101952.00;;;;5032734;28;20199;-77
2022/07/14 07:19:03;;;;;;;3.38;0.70;;;;;24.90;101963.00;;;;5034263;28;20207;-77
2022/07/14 07:21:32;;;;;;;2.22;0.85;;;;;24.90;101963.00;;;;5033915;28;20267;-77
2022/07/14 07:23:59;;;;;;;2.72;0.93;;;;;25.00;101959.00;;;;5038183;28;20211;-77
2022/07/14 07:26:26;;;;;;;2.03;0.77;;;;;25.10;101964.00;;;;5027118;28;20199;-76
2022/07/14 07:28:54;;;;;;;2.15;1.20;;;;;25.20;101961.00;;;;5029975;28;20199;-76
2022/07/14 07:31:22;;;;;;;3.38;1.20;;;;;25.30;101958.00;;;;5029115;28;20347;-76
2022/07/14 07:33:49;;;;;;;2.25;1.05;;;;;25.40;101964.00;;;;5029653;28;20192;-77
2022/07/14 07:36:17;;;;;;;4.20;1.58;;;;;25.40;101956.00;;;;5027549;28;20895;-76
2022/07/14 07:38:45;;;;;;;4.60;1.17;;;;;25.50;101959.00;;;;5038942;28;20678;-77
2022/07/14 07:41:13;;;;;;;2.13;1.02;;;;;25.60;101952.00;;;;5028601;28;20222;-77
2022/07/14 07:43:40;;;;;;;2.47;0.98;;;;;25.70;101942.00;;;;5029433;28;20559;-77
2022/07/14 07:46:07;;;;;;;3.95;1.02;;;;;25.80;101953.00;;;;5028255;28;20196;-77
2022/07/14 07:48:35;;;;;;;2.53;0.75;;;;;25.90;101946.00;;;;5039788;28;20198;-77
2022/07/14 07:51:03;;;;;;;5.57;1.13;;;;;26.00;101951.00;;;;5044238;28;20227;-77
2022/07/14 07:53:30;;;;;;;4.45;0.77;;;;;26.10;101949.00;;;;5048838;28;20200;-77
2022/07/14 07:55:59;;;;;;;4.47;1.00;;;;;26.20;101944.00;;;;5031489;28;20234;-76
2022/07/14 07:58:27;;;;;;;3.30;1.00;;;;;26.20;101944.00;;;;5028631;28;20203;-77
2022/07/14 08:00:54;;;;;;;6.00;0.60;;;;;26.30;101941.00;;;;5028983;28;20196;-77
2022/07/14 08:03:22;;;;;;;3.55;0.80;;;;;26.40;101935.00;;;;5028972;28;20406;-77
2022/07/14 08:05:49;;;;;;;4.05;0.77;;;;;26.50;101928.00;;;;5046278;28;20199;-77
2022/07/14 08:08:16;;;;;;;2.90;0.68;;;;;26.60;101933.00;;;;5039638;28;20223;-76
2022/07/14 08:10:44;;;;;;;2.33;0.98;;;;;26.70;101939.00;;;;5028313;28;20220;-77
2022/07/14 08:13:16;;;;;;;4.03;1.02;;;;;26.80;101940.00;;;;5028377;28;20663;-77
2022/07/14 08:15:43;;;;;;;4.18;1.05;;;;;26.90;101933.00;;;;5029315;28;20215;-77
2022/07/14 08:18:11;;;;;;;3.33;0.85;;;;;27.00;101939.00;;;;5040450;28;20258;-77
2022/07/14 08:20:38;;;;;;;1.73;0.70;;;;;27.10;101928.00;;;;5029472;28;20192;-77
2022/07/14 08:23:05;;;;;;;1.77;0.63;;;;;27.20;101929.00;;;;5027737;28;20200;-77
2022/07/14 08:25:33;;;;;;;5.72;1.50;;;;;27.30;101928.00;;;;5028559;28;20652;-77
2022/07/14 08:28:01;;;;;;;2.70;0.90;;;;;27.40;101928.00;;;;5034630;28;20671;-77
2022/07/14 08:30:29;;;;;;;2.83;0.70;;;;;27.50;101913.00;;;;5034001;28;20211;-77
2022/07/14 08:32:57;;;;;;;3.42;1.00;;;;;27.60;101921.00;;;;5029784;28;20310;-77
2022/07/14 08:35:26;;;;;;;5.35;1.10;;;;;27.70;101917.00;;;;5028358;28;20215;-77
2022/07/14 08:37:54;;;;;;;4.85;1.00;;;;;27.80;101903.00;;;;5029769;28;20211;-77
2022/07/14 08:40:23;;;;;;;3.05;0.75;;;;;28.00;101911.00;;;;5028097;28;20311;-77
2022/07/14 08:42:52;;;;;;;5.05;0.68;;;;;28.10;101915.00;;;;5027866;28;20892;-77
2022/07/14 08:45:22;;;;;;;4.20;0.95;;;;;28.10;101912.00;;;;5033685;28;20212;-77
2022/07/14 08:47:51;;;;;;;4.18;0.88;;;;;28.20;101911.00;;;;5030038;28;20685;-77
2022/07/14 08:50:20;;;;;;;4.50;1.02;;;;;28.30;101906.00;;;;5047633;28;20224;-77
2022/07/14 08:52:49;;;;;;;6.18;0.90;;;;;28.40;101906.00;;;;5047224;28;20200;-77
2022/07/14 08:55:17;;;;;;;1.65;1.00;;;;;28.40;101908.00;;;;5046225;28;20227;-77
2022/07/14 08:57:45;;;;;;;3.67;0.90;;;;;28.50;101911.00;;;;5047363;28;20200;-77
2022/07/14 09:00:15;;;;;;;2.67;0.88;;;;;28.60;101913.00;;;;5047325;28;20196;-77
2022/07/14 09:02:48;;;;;;;3.03;0.82;;;;;28.60;101913.00;;;;5035180;28;20204;-77
2022/07/14 09:05:17;;;;;;;2.38;0.65;;;;;28.80;101907.00;;;;5027700;28;20200;-77
2022/07/14 09:07:44;;;;;;;3.08;0.50;;;;;28.90;101920.00;;;;5039305;28;20198;-77
2022/07/14 09:10:13;;;;;;;1.17;0.52;;;;;29.00;101923.00;;;;5030591;28;20220;-77
2022/07/14 09:12:42;;;;;;;2.58;0.80;;;;;29.10;101916.00;;;;5030156;28;20215;-76
2022/07/14 09:17:58;;;;;;;3.45;1.15;;;;;29.30;101917.00;;;;5027463;28;20203;-77
2022/07/14 09:20:28;;;;;;;1.95;0.68;;;;;29.40;101922.00;;;;5041558;28;20574;-77
2022/07/14 09:22:58;;;;;;;2.05;0.50;;;;;29.60;101929.00;;;;5036491;28;20685;-77
2022/07/14 09:25:27;;;;;;;3.25;0.82;;;;;29.60;101931.00;;;;5031290;28;20219;-77
2022/07/14 09:27:55;;;;;;;3.28;0.73;;;;;29.60;101931.00;;;;5031879;28;20195;-78
2022/07/14 09:30:24;;;;;;;3.15;0.80;;;;;29.60;101928.00;;;;5031143;28;20231;-77
2022/07/14 09:32:53;;;;;;;2.08;0.50;;;;;29.50;101929.00;;;;5032274;28;20200;-77
2022/07/14 09:35:25;;;;;;;8.63;0.75;;;;;29.50;101932.00;;;;5031638;28;21107;-77
2022/07/14 09:37:55;;;;;;;4.95;0.68;;;;;29.50;101930.00;;;;5033289;28;21638;-77
2022/07/14 09:40:26;;;;;;;2.35;0.40;;;;;29.60;101928.00;;;;5043957;28;20199;-77
2022/07/14 09:42:57;;;;;;;3.72;0.75;;;;;29.70;101926.00;;;;5037354;28;20285;-77
2022/07/14 09:45:27;;;;;;;2.13;0.82;;;;;29.70;101925.00;;;;5032706;28;20752;-77
2022/07/14 09:48:07;;;;;;;2.70;0.70;;;;;29.60;101926.00;;;;5037141;28;20358;-77
2022/07/14 09:50:44;;;;;;;1.85;0.60;;;;;29.60;101929.00;;;;5051027;28;20238;-77
2022/07/14 09:53:18;;;;;;;1.85;0.57;;;;;29.60;101924.00;;;;5045438;28;20207;-77
2022/07/14 09:55:54;;;;;;;3.55;0.93;;;;;29.60;101922.00;;;;5030821;28;20219;-77
2022/07/14 09:58:21;;;;;;;3.30;0.68;;;;;29.70;101918.00;;;;5030795;28;20202;-77
2022/07/14 10:01:00;;;;;;;1.73;0.57;;;;;29.70;101915.00;;;;5030873;28;20196;-77
2022/07/14 10:03:29;;;;;;;1.15;0.70;;;;;29.80;101915.00;;;;5031300;28;20646;-77
2022/07/14 10:05:58;;;;;;;10.55;1.23;;;;;29.90;101909.00;;;;5031257;28;20207;-77
2022/07/14 10:08:28;;;;;;;0.95;0.70;;;;;30.00;101911.00;;;;5043081;28;20233;-77
2022/07/14 10:10:58;;;;;;;2.65;0.85;;;;;30.10;101913.00;;;;5040504;28;20234;-78
2022/07/14 10:13:26;;;;;;;2.13;0.55;;;;;30.20;101917.00;;;;5033166;28;20200;-77
2022/07/14 10:15:56;;;;;;;7.28;0.88;;;;;30.30;101913.00;;;;5032821;28;20200;-77
2022/07/14 10:18:24;;;;;;;3.22;0.90;;;;;30.40;101922.00;;;;5028244;28;20287;-78
2022/07/14 10:20:53;;;;;;;0.80;0.45;;;;;30.40;101918.00;;;;5043901;28;20208;-80
2022/07/14 10:23:22;;;;;;;2.30;0.65;;;;;30.40;101914.00;;;;5037558;28;20208;-78
2022/07/14 10:25:53;;;;;;;1.85;0.50;;;;;30.40;101924.00;;;;5031140;28;20697;-78
2022/07/14 10:28:22;;;;;;;2.13;0.60;;;;;30.40;101918.00;;;;5040616;28;20204;-78
2022/07/14 10:31:08;;;;;;;7.78;1.08;;;;;30.40;101914.00;;;;5030185;28;20227;-78
2022/07/14 10:33:46;;;;;;;0.80;0.52;;;;;30.40;101919.00;;;;5045111;28;20195;-78
2022/07/14 10:36:18;;;;;;;3.63;0.70;;;;;30.40;101924.00;;;;5043814;28;20196;-78
2022/07/14 10:39:08;;;;;;;1.48;0.60;;;;;30.30;101917.00;;;;5034381;28;20647;-78
2022/07/14 10:41:55;;;;;;;2.08;0.80;;;;;30.20;101916.00;;;;5033995;28;20199;-78
2022/07/14 10:44:24;;;;;;;1.90;0.40;;;;;30.20;101918.00;;;;5029758;28;20201;-78
2022/07/14 10:47:05;;;;;;;1.67;0.60;;;;;30.20;101916.00;;;;5032124;28;20292;-77
2022/07/14 10:50:05;;;;;;;1.08;0.52;;;;;30.00;101914.00;;;;5034266;28;20204;-78
2022/07/14 10:52:35;;;;;;;2.25;0.65;;;;;30.10;101910.00;;;;5030121;28;20226;-78
2022/07/14 10:55:14;;;;;;;1.90;0.60;;;;;30.00;101903.00;;;;5046587;28;20749;-78
2022/07/14 10:58:21;;;;;;;3.40;0.88;;;;;29.80;101907.00;;;;5030198;28;20200;-78
2022/07/14 11:00:58;;;;;;;2.97;1.08;;;;;29.90;101907.00;;;;5030301;28;20242;-77
2022/07/14 11:03:28;;;;;;;0.30;0.30;;;;;29.90;101906.00;;;;5029597;28;20677;-78
2022/07/14 11:06:18;;;;;;;1.52;0.50;;;;;29.80;101907.00;;;;5030183;28;20570;-78
2022/07/14 11:08:46;;;;;;;0.93;0.60;;;;;29.90;101909.00;;;;5028073;28;20196;-78
2022/07/14 11:11:18;;;;;;;1.20;0.60;;;;;29.90;101908.00;;;;5038769;28;20219;-78
2022/07/14 11:14:07;;;;;;;1.92;0.73;;;;;29.80;101908.00;;;;5043948;28;20230;-78
2022/07/14 11:16:58;;;;;;;1.77;0.68;;;;;29.70;101904.00;;;;5041538;28;20204;-78
2022/07/14 11:19:33;;;;;;;0.57;0.40;;;;;29.80;101906.00;;;;5030944;28;20746;-78
2022/07/14 11:22:25;;;;;;;1.92;0.70;;;;;29.70;101906.00;;;;5037517;28;20283;-78
2022/07/14 11:24:55;;;;;;;1.52;0.63;;;;;29.80;101918.00;;;;5015378;28;20589;-78
2022/07/14 11:27:28;;;;;;;1.20;0.38;;;;;29.80;101903.00;;;;5028162;28;20201;-78
2022/07/14 11:29:58;;;;;;;1.98;0.77;;;;;29.80;101905.00;;;;5028267;28;20211;-78
2022/07/14 11:32:35;;;;;;;0.50;0.32;;;;;29.70;101909.00;;;;5029185;28;20223;-78
2022/07/14 11:38:01;;;;;;;2.10;0.50;;;;;29.70;101916.00;;;;5028039;28;20203;-78
2022/07/14 11:40:50;;;;;;;1.13;0.60;;;;;29.70;101918.00;;;;5035177;28;20202;-79
2022/07/14 11:43:43;;;;;;;1.40;0.45;;;;;29.70;101913.00;;;;5034993;28;20216;-78
2022/07/14 11:46:12;;;;;;;0.43;0.30;;;;;29.80;101916.00;;;;5027090;28;20207;-78
2022/07/14 11:48:45;;;;;;;0.85;0.55;;;;;29.90;101919.00;;;;5029247;28;20228;-79
2022/07/14 11:51:15;;;;;;;2.10;0.55;;;;;29.90;101913.00;;;;5038925;28;20215;-78
2022/07/14 11:53:43;;;;;;;1.48;0.30;;;;;29.90;101919.00;;;;5035744;28;20200;-79
2022/07/14 11:56:12;;;;;;;0.90;0.50;;;;;30.00;101917.00;;;;5027033;28;20236;-78
2022/07/14 11:58:40;;;;;;;2.33;0.40;;;;;30.00;101915.00;;;;5042174;28;20202;-78
2022/07/14 12:01:09;;;;;;;1.35;0.60;;;;;30.10;101920.00;;;;5041304;28;20203;-79
2022/07/14 12:03:37;;;;;;;0.45;0.30;;;;;30.10;101922.00;;;;5028515;28;20216;-79
2022/07/14 12:06:06;;;;;;;1.17;0.95;;;;;30.10;101920.00;;;;5028307;28;20216;-78
2022/07/14 12:08:37;;;;;;;1.23;0.50;;;;;30.20;101917.00;;;;5027976;28;20207;-78
2022/07/14 12:11:08;;;;;;;0.47;0.30;;;;;30.20;101914.00;;;;5034573;28;20203;-79
2022/07/14 12:13:49;;;;;;;0.95;0.50;;;;;30.20;101914.00;;;;5033352;28;20741;-78
2022/07/14 12:16:16;;;;;;;2.58;0.82;;;;;30.30;101918.00;;;;5043037;28;20195;-79
2022/07/14 12:18:44;;;;;;;2.90;0.70;;;;;30.20;101911.00;;;;5035682;28;20994;-79
2022/07/14 12:21:14;;;;;;;1.75;0.60;;;;;30.20;101911.00;;;;5026978;28;20675;-79
2022/07/14 12:23:57;;;;;;;0.50;0.30;;;;;30.10;101919.00;;;;5031913;28;20198;-79
2022/07/14 12:26:26;;;;;;;2.38;0.57;;;;;30.20;101918.00;;;;5030705;28;20606;-78
2022/07/14 12:28:55;;;;;;;2.28;0.65;;;;;30.20;101904.00;;;;5028081;28;20212;-78
2022/07/14 12:31:23;;;;;;;0.63;0.45;;;;;30.20;101911.00;;;;5028708;28;20228;-79